sensor_id;sensor_type;location;lat;lon;timestamp;pressure;altitude;pressure_sealevel;temperature;humidity
58919;BME280;44704;50.122;19.932;2022-10-31T00:01:25;98770.36;;;11.47;87.85
58919;BME280;44704;50.122;19.932;2022-10-31T00:03:53;98766.22;;;11.44;88.19
58919;BME280;44704;50.122;19.932;2022-10-31T00:06:19;98766.73;;;11.42;88.17
58919;BME280;44704;50.122;19.932;2022-10-31T00:08:46;98765.94;;;11.40;88.33
58919;BME280;44704;50.122;19.932;2022-10-31T00:11:13;98763.77;;;11.38;88.44
58919;BME280;44704;50.122;19.932;2022-10-31T00:13:53;98766.59;;;11.35;88.33
58919;BME280;44704;50.122;19.932;2022-10-31T00:16:31;98770.81;;;11.30;88.81
58919;BME280;44704;50.122;19.932;2022-10-31T00:19:09;98770.52;;;11.24;88.78
58919;BME280;44704;50.122;19.932;2022-10-31T00:21:38;98769.63;;;11.20;88.95
58919;BME280;44704;50.122;19.932;2022-10-31T00:24:04;98774.23;;;11.14;89.20
58919;BME280;44704;50.122;19.932;2022-10-31T00:26:31;98771.74;;;11.07;89.23
58919;BME280;44704;50.122;19.932;2022-10-31T00:28:58;98777.02;;;11.00;89.46
58919;BME280;44704;50.122;19.932;2022-10-31T00:31:27;98779.81;;;10.95;89.96
58919;BME280;44704;50.122;19.932;2022-10-31T00:33:53;98780.59;;;10.92;90.18
58919;BME280;44704;50.122;19.932;2022-10-31T00:36:21;98778.66;;;10.88;90.24
58919;BME280;44704;50.122;19.932;2022-10-31T00:38:49;98780.67;;;10.83;90.48
58919;BME280;44704;50.122;19.932;2022-10-31T00:41:16;98778.73;;;10.77;90.71
58919;BME280;44704;50.122;19.932;2022-10-31T00:43:43;98780.45;;;10.73;90.59
58919;BME280;44704;50.122;19.932;2022-10-31T00:46:10;98781.27;;;10.69;90.51
58919;BME280;44704;50.122;19.932;2022-10-31T00:48:37;98784.39;;;10.64;90.80
58919;BME280;44704;50.122;19.932;2022-10-31T00:51:03;98783.73;;;10.59;90.37
58919;BME280;44704;50.122;19.932;2022-10-31T00:53:29;98783.27;;;10.56;90.44
58919;BME280;44704;50.122;19.932;2022-10-31T00:55:56;98781.00;;;10.51;90.41
58919;BME280;44704;50.122;19.932;2022-10-31T00:58:23;98783.59;;;10.49;90.40
58919;BME280;44704;50.122;19.932;2022-10-31T01:00:49;98781.73;;;10.45;90.51
58919;BME280;44704;50.122;19.932;2022-10-31T01:03:28;98781.78;;;10.42;90.58
58919;BME280;44704;50.122;19.932;2022-10-31T01:06:00;98783.73;;;10.39;90.98
58919;BME280;44704;50.122;19.932;2022-10-31T01:08:27;98780.64;;;10.38;91.31
58919;BME280;44704;50.122;19.932;2022-10-31T01:11:16;98778.00;;;10.38;91.61
58919;BME280;44704;50.122;19.932;2022-10-31T01:13:44;98781.98;;;10.38;91.93
58919;BME280;44704;50.122;19.932;2022-10-31T01:16:15;98778.88;;;10.38;92.09
58919;BME280;44704;50.122;19.932;2022-10-31T01:18:42;98779.82;;;10.38;92.36
58919;BME280;44704;50.122;19.932;2022-10-31T01:21:16;98779.42;;;10.38;92.48
58919;BME280;44704;50.122;19.932;2022-10-31T01:23:45;98779.52;;;10.37;92.42
58919;BME280;44704;50.122;19.932;2022-10-31T01:26:18;98779.09;;;10.38;92.51
58919;BME280;44704;50.122;19.932;2022-10-31T01:29:04;98779.27;;;10.38;92.60
58919;BME280;44704;50.122;19.932;2022-10-31T01:31:34;98774.34;;;10.37;92.41
58919;BME280;44704;50.122;19.932;2022-10-31T01:34:00;98776.52;;;10.37;92.49
58919;BME280;44704;50.122;19.932;2022-10-31T01:36:31;98772.05;;;10.36;92.82
58919;BME280;44704;50.122;19.932;2022-10-31T01:39:03;98773.87;;;10.35;92.65
58919;BME280;44704;50.122;19.932;2022-10-31T01:41:32;98771.19;;;10.35;92.89
58919;BME280;44704;50.122;19.932;2022-10-31T01:46:52;98761.48;;;10.34;92.98
58919;BME280;44704;50.122;19.932;2022-10-31T01:52:11;98757.12;;;10.36;93.35
58919;BME280;44704;50.122;19.932;2022-10-31T01:54:46;98760.29;;;10.36;92.81
58919;BME280;44704;50.122;19.932;2022-10-31T01:57:14;98758.39;;;10.37;93.04
58919;BME280;44704;50.122;19.932;2022-10-31T01:59:47;98758.66;;;10.37;93.14
58919;BME280;44704;50.122;19.932;2022-10-31T02:02:17;98757.70;;;10.38;93.02
58919;BME280;44704;50.122;19.932;2022-10-31T02:04:46;98763.12;;;10.39;92.80
58919;BME280;44704;50.122;19.932;2022-10-31T02:07:18;98761.73;;;10.40;92.85
58919;BME280;44704;50.122;19.932;2022-10-31T02:09:47;98758.13;;;10.39;92.63
58919;BME280;44704;50.122;19.932;2022-10-31T02:12:14;98764.13;;;10.39;92.91
58919;BME280;44704;50.122;19.932;2022-10-31T02:14:41;98765.13;;;10.39;92.84
58919;BME280;44704;50.122;19.932;2022-10-31T02:17:08;98765.66;;;10.38;92.61
58919;BME280;44704;50.122;19.932;2022-10-31T02:22:11;98762.55;;;10.36;92.58
58919;BME280;44704;50.122;19.932;2022-10-31T02:27:32;98761.39;;;10.33;92.40
58919;BME280;44704;50.122;19.932;2022-10-31T02:30:11;98767.60;;;10.30;92.18
58919;BME280;44704;50.122;19.932;2022-10-31T02:46:21;98772.73;;;10.18;92.21
58919;BME280;44704;50.122;19.932;2022-10-31T02:48:53;98774.17;;;10.18;92.32
58919;BME280;44704;50.122;19.932;2022-10-31T02:51:21;98779.80;;;10.16;92.08
58919;BME280;44704;50.122;19.932;2022-10-31T02:53:47;98780.98;;;10.16;92.17
58919;BME280;44704;50.122;19.932;2022-10-31T02:56:16;98784.01;;;10.15;92.42
58919;BME280;44704;50.122;19.932;2022-10-31T03:02:04;98784.53;;;10.14;92.30
58919;BME280;44704;50.122;19.932;2022-10-31T03:04:37;98784.17;;;10.13;92.33
58919;BME280;44704;50.122;19.932;2022-10-31T03:15:19;98789.70;;;10.10;92.47
58919;BME280;44704;50.122;19.932;2022-10-31T03:17:56;98792.71;;;10.10;92.34
58919;BME280;44704;50.122;19.932;2022-10-31T03:20:32;98792.16;;;10.10;92.24
58919;BME280;44704;50.122;19.932;2022-10-31T03:23:02;98793.58;;;10.11;92.35
58919;BME280;44704;50.122;19.932;2022-10-31T03:25:31;98797.14;;;10.11;92.36
58919;BME280;44704;50.122;19.932;2022-10-31T03:28:01;98794.81;;;10.12;92.13
58919;BME280;44704;50.122;19.932;2022-10-31T03:30:29;98793.73;;;10.12;92.03
58919;BME280;44704;50.122;19.932;2022-10-31T03:32:59;98799.72;;;10.12;92.02
58919;BME280;44704;50.122;19.932;2022-10-31T03:35:30;98798.24;;;10.12;92.20
58919;BME280;44704;50.122;19.932;2022-10-31T03:37:58;98800.80;;;10.12;92.14
58919;BME280;44704;50.122;19.932;2022-10-31T03:40:27;98801.23;;;10.11;92.00
58919;BME280;44704;50.122;19.932;2022-10-31T03:42:59;98802.84;;;10.11;91.70
58919;BME280;44704;50.122;19.932;2022-10-31T03:45:32;98805.30;;;10.08;91.65
58919;BME280;44704;50.122;19.932;2022-10-31T03:48:03;98800.05;;;10.07;91.71
58919;BME280;44704;50.122;19.932;2022-10-31T03:51:00;98802.23;;;10.06;91.76
58919;BME280;44704;50.122;19.932;2022-10-31T03:53:33;98803.31;;;10.03;91.45
58919;BME280;44704;50.122;19.932;2022-10-31T03:56:09;98803.66;;;10.00;91.66
58919;BME280;44704;50.122;19.932;2022-10-31T03:58:47;98808.67;;;9.98;91.65
58919;BME280;44704;50.122;19.932;2022-10-31T04:01:16;98806.70;;;9.95;91.48
58919;BME280;44704;50.122;19.932;2022-10-31T04:03:45;98803.14;;;9.93;91.77
58919;BME280;44704;50.122;19.932;2022-10-31T04:06:16;98803.13;;;9.92;91.44
58919;BME280;44704;50.122;19.932;2022-10-31T04:08:49;98800.94;;;9.89;91.59
58919;BME280;44704;50.122;19.932;2022-10-31T04:11:20;98803.53;;;9.86;91.48
58919;BME280;44704;50.122;19.932;2022-10-31T04:14:09;98806.91;;;9.84;91.54
58919;BME280;44704;50.122;19.932;2022-10-31T04:16:41;98808.19;;;9.83;91.72
58919;BME280;44704;50.122;19.932;2022-10-31T04:19:10;98807.45;;;9.82;91.72
58919;BME280;44704;50.122;19.932;2022-10-31T04:21:36;98804.91;;;9.81;91.49
58919;BME280;44704;50.122;19.932;2022-10-31T04:24:06;98808.14;;;9.80;91.63
58919;BME280;44704;50.122;19.932;2022-10-31T04:26:32;98807.25;;;9.79;91.77
58919;BME280;44704;50.122;19.932;2022-10-31T04:28:58;98807.21;;;9.78;91.65
58919;BME280;44704;50.122;19.932;2022-10-31T04:31:27;98804.96;;;9.77;91.52
58919;BME280;44704;50.122;19.932;2022-10-31T04:33:53;98808.38;;;9.75;91.87
58919;BME280;44704;50.122;19.932;2022-10-31T04:36:22;98807.15;;;9.73;91.85
58919;BME280;44704;50.122;19.932;2022-10-31T04:38:48;98808.72;;;9.73;91.91
58919;BME280;44704;50.122;19.932;2022-10-31T04:41:33;98806.10;;;9.71;91.76
58919;BME280;44704;50.122;19.932;2022-10-31T04:44:04;98805.52;;;9.68;91.75
58919;BME280;44704;50.122;19.932;2022-10-31T04:46:32;98806.45;;;9.67;91.77
58919;BME280;44704;50.122;19.932;2022-10-31T04:48:58;98811.08;;;9.65;91.92
58919;BME280;44704;50.122;19.932;2022-10-31T04:51:27;98810.43;;;9.63;91.76
58919;BME280;44704;50.122;19.932;2022-10-31T04:53:53;98812.45;;;9.62;91.93
58919;BME280;44704;50.122;19.932;2022-10-31T04:56:39;98809.18;;;9.60;91.96
58919;BME280;44704;50.122;19.932;2022-10-31T04:59:11;98814.34;;;9.59;92.02
58919;BME280;44704;50.122;19.932;2022-10-31T05:01:48;98808.39;;;9.56;92.25
58919;BME280;44704;50.122;19.932;2022-10-31T05:04:17;98812.32;;;9.57;92.35
58919;BME280;44704;50.122;19.932;2022-10-31T05:06:43;98810.67;;;9.57;92.34
58919;BME280;44704;50.122;19.932;2022-10-31T05:09:09;98815.59;;;9.58;92.30
58919;BME280;44704;50.122;19.932;2022-10-31T05:11:35;98816.70;;;9.58;92.27
58919;BME280;44704;50.122;19.932;2022-10-31T05:14:13;98815.20;;;9.57;92.16
58919;BME280;44704;50.122;19.932;2022-10-31T05:16:57;98818.60;;;9.56;92.17
58919;BME280;44704;50.122;19.932;2022-10-31T05:19:50;98820.39;;;9.54;92.23
58919;BME280;44704;50.122;19.932;2022-10-31T05:22:34;98816.21;;;9.50;91.86
58919;BME280;44704;50.122;19.932;2022-10-31T05:25:01;98820.13;;;9.48;92.10
58919;BME280;44704;50.122;19.932;2022-10-31T05:27:28;98819.19;;;9.46;91.85
58919;BME280;44704;50.122;19.932;2022-10-31T05:29:55;98823.48;;;9.44;92.06
58919;BME280;44704;50.122;19.932;2022-10-31T05:32:26;98828.36;;;9.41;92.03
58919;BME280;44704;50.122;19.932;2022-10-31T05:35:16;98830.64;;;9.40;91.76
58919;BME280;44704;50.122;19.932;2022-10-31T05:38:05;98832.36;;;9.37;92.01
58919;BME280;44704;50.122;19.932;2022-10-31T05:40:31;98837.41;;;9.37;92.15
58919;BME280;44704;50.122;19.932;2022-10-31T05:42:58;98838.77;;;9.36;92.28
58919;BME280;44704;50.122;19.932;2022-10-31T05:45:25;98836.50;;;9.37;92.28
58919;BME280;44704;50.122;19.932;2022-10-31T05:47:58;98840.00;;;9.38;92.17
58919;BME280;44704;50.122;19.932;2022-10-31T05:50:43;98843.45;;;9.39;92.13
58919;BME280;44704;50.122;19.932;2022-10-31T05:53:10;98843.70;;;9.40;92.32
58919;BME280;44704;50.122;19.932;2022-10-31T05:55:37;98847.64;;;9.41;92.50
58919;BME280;44704;50.122;19.932;2022-10-31T05:58:18;98846.21;;;9.42;92.59
58919;BME280;44704;50.122;19.932;2022-10-31T06:00:58;98849.25;;;9.44;92.31
58919;BME280;44704;50.122;19.932;2022-10-31T06:03:24;98853.73;;;9.45;92.36
58919;BME280;44704;50.122;19.932;2022-10-31T06:05:54;98854.60;;;9.47;92.43
58919;BME280;44704;50.122;19.932;2022-10-31T06:08:20;98851.23;;;9.48;92.41
58919;BME280;44704;50.122;19.932;2022-10-31T06:10:46;98852.95;;;9.52;92.42
58919;BME280;44704;50.122;19.932;2022-10-31T06:13:14;98858.40;;;9.54;92.48
58919;BME280;44704;50.122;19.932;2022-10-31T06:15:44;98860.76;;;9.57;92.49
58919;BME280;44704;50.122;19.932;2022-10-31T06:18:11;98860.84;;;9.60;92.52
58919;BME280;44704;50.122;19.932;2022-10-31T06:20:48;98867.67;;;9.62;92.32
58919;BME280;44704;50.122;19.932;2022-10-31T06:23:15;98871.71;;;9.66;92.37
58919;BME280;44704;50.122;19.932;2022-10-31T06:25:42;98875.02;;;9.69;92.22
58919;BME280;44704;50.122;19.932;2022-10-31T06:28:10;98876.84;;;9.72;92.36
58919;BME280;44704;50.122;19.932;2022-10-31T06:31:11;98881.48;;;9.76;92.24
58919;BME280;44704;50.122;19.932;2022-10-31T06:33:37;98883.66;;;9.78;92.15
58919;BME280;44704;50.122;19.932;2022-10-31T06:36:04;98885.00;;;9.81;92.32
58919;BME280;44704;50.122;19.932;2022-10-31T06:38:30;98885.70;;;9.85;92.00
58919;BME280;44704;50.122;19.932;2022-10-31T06:41:02;98893.15;;;9.89;91.99
58919;BME280;44704;50.122;19.932;2022-10-31T06:43:37;98893.48;;;9.93;92.03
58919;BME280;44704;50.122;19.932;2022-10-31T06:46:30;98893.74;;;9.97;91.82
58919;BME280;44704;50.122;19.932;2022-10-31T06:49:16;98895.23;;;10.01;91.80
58919;BME280;44704;50.122;19.932;2022-10-31T06:52:08;98895.88;;;10.05;91.74
58919;BME280;44704;50.122;19.932;2022-10-31T06:54:34;98896.50;;;10.10;91.51
58919;BME280;44704;50.122;19.932;2022-10-31T06:57:02;98900.83;;;10.14;91.59
58919;BME280;44704;50.122;19.932;2022-10-31T06:59:28;98904.21;;;10.18;91.44
58919;BME280;44704;50.122;19.932;2022-10-31T07:02:20;98901.98;;;10.22;91.34
58919;BME280;44704;50.122;19.932;2022-10-31T07:04:48;98902.68;;;10.25;91.45
58919;BME280;44704;50.122;19.932;2022-10-31T07:07:15;98902.87;;;10.30;91.40
58919;BME280;44704;50.122;19.932;2022-10-31T07:09:41;98900.39;;;10.35;91.31
58919;BME280;44704;50.122;19.932;2022-10-31T07:12:09;98905.05;;;10.40;90.98
58919;BME280;44704;50.122;19.932;2022-10-31T07:14:38;98902.02;;;10.46;91.02
58919;BME280;44704;50.122;19.932;2022-10-31T07:17:05;98907.19;;;10.51;91.02
58919;BME280;44704;50.122;19.932;2022-10-31T07:19:34;98908.26;;;10.57;91.03
58919;BME280;44704;50.122;19.932;2022-10-31T07:22:01;98909.16;;;10.63;90.96
58919;BME280;44704;50.122;19.932;2022-10-31T07:24:28;98909.15;;;10.70;90.63
58919;BME280;44704;50.122;19.932;2022-10-31T07:26:56;98909.92;;;10.76;90.61
58919;BME280;44704;50.122;19.932;2022-10-31T07:29:22;98910.41;;;10.83;90.65
58919;BME280;44704;50.122;19.932;2022-10-31T07:31:49;98909.69;;;10.89;90.41
58919;BME280;44704;50.122;19.932;2022-10-31T07:34:21;98915.84;;;10.96;90.38
58919;BME280;44704;50.122;19.932;2022-10-31T07:37:05;98912.55;;;11.04;90.08
58919;BME280;44704;50.122;19.932;2022-10-31T07:39:32;98912.85;;;11.10;90.21
58919;BME280;44704;50.122;19.932;2022-10-31T07:41:59;98917.01;;;11.17;89.71
58919;BME280;44704;50.122;19.932;2022-10-31T07:44:25;98915.69;;;11.25;90.05
58919;BME280;44704;50.122;19.932;2022-10-31T07:46:52;98912.61;;;11.33;89.96
58919;BME280;44704;50.122;19.932;2022-10-31T07:49:53;98911.00;;;11.42;89.43
58919;BME280;44704;50.122;19.932;2022-10-31T07:52:38;98908.85;;;11.50;89.02
58919;BME280;44704;50.122;19.932;2022-10-31T07:55:26;98910.27;;;11.61;89.05
58919;BME280;44704;50.122;19.932;2022-10-31T07:58:02;98909.78;;;11.70;88.69
58919;BME280;44704;50.122;19.932;2022-10-31T08:00:30;98905.02;;;11.79;88.34
58919;BME280;44704;50.122;19.932;2022-10-31T08:03:05;98905.54;;;11.89;88.27
58919;BME280;44704;50.122;19.932;2022-10-31T08:05:58;98904.70;;;12.02;87.99
58919;BME280;44704;50.122;19.932;2022-10-31T08:08:24;98905.50;;;12.11;87.90
58919;BME280;44704;50.122;19.932;2022-10-31T08:10:51;98905.93;;;12.22;87.74
58919;BME280;44704;50.122;19.932;2022-10-31T08:13:18;98908.34;;;12.35;87.46
58919;BME280;44704;50.122;19.932;2022-10-31T08:15:46;98909.59;;;12.46;87.16
58919;BME280;44704;50.122;19.932;2022-10-31T08:18:17;98906.55;;;12.57;86.89
58919;BME280;44704;50.122;19.932;2022-10-31T08:20:44;98907.02;;;12.69;86.62
58919;BME280;44704;50.122;19.932;2022-10-31T08:23:11;98908.89;;;12.80;86.39
58919;BME280;44704;50.122;19.932;2022-10-31T08:25:42;98910.35;;;12.93;86.12
58919;BME280;44704;50.122;19.932;2022-10-31T08:28:13;98908.84;;;13.04;85.71
58919;BME280;44704;50.122;19.932;2022-10-31T08:30:41;98906.37;;;13.15;85.08
58919;BME280;44704;50.122;19.932;2022-10-31T08:33:30;98906.24;;;13.28;84.43
58919;BME280;44704;50.122;19.932;2022-10-31T08:36:15;98899.06;;;13.41;84.17
58919;BME280;44704;50.122;19.932;2022-10-31T08:38:56;98906.45;;;13.54;83.77
58919;BME280;44704;50.122;19.932;2022-10-31T08:41:24;98908.20;;;13.65;83.21
58919;BME280;44704;50.122;19.932;2022-10-31T08:43:51;98906.52;;;13.76;82.76
58919;BME280;44704;50.122;19.932;2022-10-31T08:46:18;98904.52;;;13.87;82.25
58919;BME280;44704;50.122;19.932;2022-10-31T08:48:47;98902.90;;;13.99;81.87
58919;BME280;44704;50.122;19.932;2022-10-31T08:51:17;98895.42;;;14.10;81.20
58919;BME280;44704;50.122;19.932;2022-10-31T08:53:44;98897.73;;;14.22;80.35
58919;BME280;44704;50.122;19.932;2022-10-31T08:56:23;98899.66;;;14.34;79.92
58919;BME280;44704;50.122;19.932;2022-10-31T08:58:49;98895.65;;;14.45;78.99
58919;BME280;44704;50.122;19.932;2022-10-31T09:01:20;98891.77;;;14.56;78.11
58919;BME280;44704;50.122;19.932;2022-10-31T09:03:46;98892.20;;;14.67;77.89
58919;BME280;44704;50.122;19.932;2022-10-31T09:06:13;98891.66;;;14.78;77.69
58919;BME280;44704;50.122;19.932;2022-10-31T09:08:39;98894.15;;;14.89;76.81
58919;BME280;44704;50.122;19.932;2022-10-31T09:11:08;98894.40;;;15.01;76.49
58919;BME280;44704;50.122;19.932;2022-10-31T09:13:53;98897.29;;;15.14;75.71
58919;BME280;44704;50.122;19.932;2022-10-31T09:16:26;98899.27;;;15.26;75.32
58919;BME280;44704;50.122;19.932;2022-10-31T09:18:53;98900.11;;;15.37;75.05
58919;BME280;44704;50.122;19.932;2022-10-31T09:21:20;98896.39;;;15.48;74.67
58919;BME280;44704;50.122;19.932;2022-10-31T09:23:46;98894.20;;;15.59;74.43
58919;BME280;44704;50.122;19.932;2022-10-31T09:26:12;98894.63;;;15.70;74.00
58919;BME280;44704;50.122;19.932;2022-10-31T09:28:56;98891.91;;;15.83;73.83
58919;BME280;44704;50.122;19.932;2022-10-31T09:31:24;98894.21;;;15.95;73.97
58919;BME280;44704;50.122;19.932;2022-10-31T09:33:52;98893.26;;;16.08;73.75
58919;BME280;44704;50.122;19.932;2022-10-31T09:36:31;98894.23;;;16.22;72.97
58919;BME280;44704;50.122;19.932;2022-10-31T09:38:57;98896.94;;;16.34;72.46
58919;BME280;44704;50.122;19.932;2022-10-31T09:44:20;98900.29;;;16.58;71.69
58919;BME280;44704;50.122;19.932;2022-10-31T09:50:19;98901.62;;;16.82;71.06
58919;BME280;44704;50.122;19.932;2022-10-31T09:53:05;98902.52;;;16.94;70.71
58919;BME280;44704;50.122;19.932;2022-10-31T09:55:40;98902.30;;;17.05;70.38
58919;BME280;44704;50.122;19.932;2022-10-31T09:58:20;98904.04;;;17.14;70.01
58919;BME280;44704;50.122;19.932;2022-10-31T10:00:49;98904.02;;;17.26;68.75
58919;BME280;44704;50.122;19.932;2022-10-31T10:03:24;98904.01;;;17.37;68.01
58919;BME280;44704;50.122;19.932;2022-10-31T10:06:00;98902.93;;;17.49;68.43
58919;BME280;44704;50.122;19.932;2022-10-31T10:08:39;98903.27;;;17.61;68.43
58919;BME280;44704;50.122;19.932;2022-10-31T10:28:21;98890.97;;;18.38;64.86
58919;BME280;44704;50.122;19.932;2022-10-31T10:31:25;98891.34;;;18.49;64.76
58919;BME280;44704;50.122;19.932;2022-10-31T10:34:00;98887.67;;;18.60;65.04
58919;BME280;44704;50.122;19.932;2022-10-31T10:36:39;98884.94;;;18.71;64.78
58919;BME280;44704;50.122;19.932;2022-10-31T10:39:24;98886.48;;;18.81;64.12
58919;BME280;44704;50.122;19.932;2022-10-31T10:41:51;98886.67;;;18.87;63.70
58919;BME280;44704;50.122;19.932;2022-10-31T10:44:38;98885.38;;;18.95;63.61
58919;BME280;44704;50.122;19.932;2022-10-31T10:47:26;98882.17;;;19.03;63.54
58919;BME280;44704;50.122;19.932;2022-10-31T10:50:31;98883.91;;;19.11;63.71
58919;BME280;44704;50.122;19.932;2022-10-31T10:53:03;98882.34;;;19.19;63.46
58919;BME280;44704;50.122;19.932;2022-10-31T10:55:38;98880.88;;;19.27;63.10
58919;BME280;44704;50.122;19.932;2022-10-31T10:58:10;98880.86;;;19.33;63.33
58919;BME280;44704;50.122;19.932;2022-10-31T11:00:44;98878.65;;;19.40;62.41
58919;BME280;44704;50.122;19.932;2022-10-31T11:03:16;98876.09;;;19.45;62.46
58919;BME280;44704;50.122;19.932;2022-10-31T11:05:54;98880.11;;;19.52;62.12
58919;BME280;44704;50.122;19.932;2022-10-31T11:11:03;98876.31;;;19.64;62.12
58919;BME280;44704;50.122;19.932;2022-10-31T11:13:32;98874.52;;;19.73;62.33
58919;BME280;44704;50.122;19.932;2022-10-31T11:18:53;98869.16;;;19.87;62.23
58919;BME280;44704;50.122;19.932;2022-10-31T11:21:30;98867.47;;;19.95;62.22
58919;BME280;44704;50.122;19.932;2022-10-31T11:26:37;98867.01;;;20.03;60.96
58919;BME280;44704;50.122;19.932;2022-10-31T11:29:20;98868.85;;;20.07;61.05
58919;BME280;44704;50.122;19.932;2022-10-31T11:31:47;98863.73;;;20.13;61.13
58919;BME280;44704;50.122;19.932;2022-10-31T11:34:41;98862.79;;;20.17;60.89
58919;BME280;44704;50.122;19.932;2022-10-31T11:37:32;98860.00;;;20.22;60.75
58919;BME280;44704;50.122;19.932;2022-10-31T11:40:05;98860.90;;;20.28;60.64
58919;BME280;44704;50.122;19.932;2022-10-31T11:42:39;98860.66;;;20.33;60.48
58919;BME280;44704;50.122;19.932;2022-10-31T11:45:15;98856.11;;;20.39;60.24
58919;BME280;44704;50.122;19.932;2022-10-31T11:47:46;98853.94;;;20.43;60.24
58919;BME280;44704;50.122;19.932;2022-10-31T11:50:24;98855.56;;;20.49;60.17
58919;BME280;44704;50.122;19.932;2022-10-31T11:52:52;98853.06;;;20.53;60.20
58919;BME280;44704;50.122;19.932;2022-10-31T11:55:35;98856.45;;;20.59;59.48
58919;BME280;44704;50.122;19.932;2022-10-31T11:58:03;98851.70;;;20.63;58.71
58919;BME280;44704;50.122;19.932;2022-10-31T12:05:44;98847.39;;;20.77;58.45
58919;BME280;44704;50.122;19.932;2022-10-31T12:08:12;98849.05;;;20.83;58.44
58919;BME280;44704;50.122;19.932;2022-10-31T12:10:54;98847.02;;;20.89;58.29
58919;BME280;44704;50.122;19.932;2022-10-31T12:13:35;98843.16;;;20.95;57.93
58919;BME280;44704;50.122;19.932;2022-10-31T12:16:20;98840.98;;;20.98;57.49
58919;BME280;44704;50.122;19.932;2022-10-31T12:18:58;98835.18;;;21.00;57.27
58919;BME280;44704;50.122;19.932;2022-10-31T12:27:03;98835.63;;;21.09;57.43
58919;BME280;44704;50.122;19.932;2022-10-31T12:32:25;98831.04;;;21.19;57.75
58919;BME280;44704;50.122;19.932;2022-10-31T12:35:01;98831.73;;;21.22;57.67
58919;BME280;44704;50.122;19.932;2022-10-31T12:38:03;98828.47;;;21.25;57.54
58919;BME280;44704;50.122;19.932;2022-10-31T12:43:37;98828.70;;;21.30;57.35
58919;BME280;44704;50.122;19.932;2022-10-31T12:49:41;98825.12;;;21.32;57.41
58919;BME280;44704;50.122;19.932;2022-10-31T12:59:56;98821.71;;;21.34;57.31
58919;BME280;44704;50.122;19.932;2022-10-31T13:02:38;98817.24;;;21.35;57.45
58919;BME280;44704;50.122;19.932;2022-10-31T13:05:28;98819.06;;;21.35;57.51
58919;BME280;44704;50.122;19.932;2022-10-31T13:10:36;98819.52;;;21.38;57.57
58919;BME280;44704;50.122;19.932;2022-10-31T13:13:21;98819.77;;;21.39;57.34
58919;BME280;44704;50.122;19.932;2022-10-31T13:16:15;98819.83;;;21.39;57.14
58919;BME280;44704;50.122;19.932;2022-10-31T13:18:47;98820.70;;;21.40;57.36
58919;BME280;44704;50.122;19.932;2022-10-31T13:21:21;98823.95;;;21.41;57.44
58919;BME280;44704;50.122;19.932;2022-10-31T13:23:50;98818.86;;;21.40;57.06
58919;BME280;44704;50.122;19.932;2022-10-31T13:26:38;98818.76;;;21.40;57.09
58919;BME280;44704;50.122;19.932;2022-10-31T13:29:30;98821.52;;;21.40;57.01
58919;BME280;44704;50.122;19.932;2022-10-31T13:32:06;98820.02;;;21.38;56.74
58919;BME280;44704;50.122;19.932;2022-10-31T13:34:37;98817.39;;;21.36;56.92
58919;BME280;44704;50.122;19.932;2022-10-31T13:37:44;98817.47;;;21.35;57.09
58919;BME280;44704;50.122;19.932;2022-10-31T13:45:48;98820.42;;;21.28;57.08
58919;BME280;44704;50.122;19.932;2022-10-31T13:50:43;98817.42;;;21.20;57.32
58919;BME280;44704;50.122;19.932;2022-10-31T13:53:22;98818.65;;;21.17;57.35
58919;BME280;44704;50.122;19.932;2022-10-31T13:55:50;98819.96;;;21.12;57.24
58919;BME280;44704;50.122;19.932;2022-10-31T13:58:30;98818.48;;;21.05;57.18
58919;BME280;44704;50.122;19.932;2022-10-31T14:01:09;98815.73;;;21.01;57.49
58919;BME280;44704;50.122;19.932;2022-10-31T14:03:39;98814.86;;;20.95;57.48
58919;BME280;44704;50.122;19.932;2022-10-31T14:06:08;98812.09;;;20.88;57.51
58919;BME280;44704;50.122;19.932;2022-10-31T14:08:39;98813.69;;;20.82;57.62
58919;BME280;44704;50.122;19.932;2022-10-31T14:11:08;98813.75;;;20.75;57.76
58919;BME280;44704;50.122;19.932;2022-10-31T14:13:44;98811.23;;;20.69;57.93
58919;BME280;44704;50.122;19.932;2022-10-31T14:16:24;98810.63;;;20.61;58.07
58919;BME280;44704;50.122;19.932;2022-10-31T14:23:52;98809.49;;;20.37;58.51
58919;BME280;44704;50.122;19.932;2022-10-31T14:28:58;98806.74;;;20.21;59.06
58919;BME280;44704;50.122;19.932;2022-10-31T14:33:54;98799.81;;;20.04;59.30
58919;BME280;44704;50.122;19.932;2022-10-31T14:36:41;98805.63;;;19.96;59.58
58919;BME280;44704;50.122;19.932;2022-10-31T14:39:48;98805.98;;;19.86;59.80
58919;BME280;44704;50.122;19.932;2022-10-31T14:47:54;98805.30;;;19.52;60.38
58919;BME280;44704;50.122;19.932;2022-10-31T14:50:23;98802.79;;;19.41;60.58
58919;BME280;44704;50.122;19.932;2022-10-31T14:52:53;98805.46;;;19.30;60.94
58919;BME280;44704;50.122;19.932;2022-10-31T14:55:21;98803.35;;;19.21;61.11
58919;BME280;44704;50.122;19.932;2022-10-31T14:57:52;98801.70;;;19.11;61.41
58919;BME280;44704;50.122;19.932;2022-10-31T15:00:22;98801.20;;;19.00;61.76
58919;BME280;44704;50.122;19.932;2022-10-31T15:05:27;98801.61;;;18.79;62.42
58919;BME280;44704;50.122;19.932;2022-10-31T15:07:55;98801.80;;;18.65;62.79
58919;BME280;44704;50.122;19.932;2022-10-31T15:10:25;98801.84;;;18.52;63.14
58919;BME280;44704;50.122;19.932;2022-10-31T15:12:52;98802.84;;;18.39;63.50
58919;BME280;44704;50.122;19.932;2022-10-31T15:15:22;98806.41;;;18.26;64.01
58919;BME280;44704;50.122;19.932;2022-10-31T15:17:54;98803.20;;;18.12;64.50
58919;BME280;44704;50.122;19.932;2022-10-31T15:20:26;98806.55;;;17.98;64.80
58919;BME280;44704;50.122;19.932;2022-10-31T15:22:55;98807.38;;;17.85;65.15
58919;BME280;44704;50.122;19.932;2022-10-31T15:25:24;98810.70;;;17.71;65.49
58919;BME280;44704;50.122;19.932;2022-10-31T15:27:52;98807.89;;;17.58;65.88